Time;durP1;ratioP1;P1;durP2;ratioP2;P2;SDS_P1;SDS_P2;PMS_P1;PMS_P2;Temp;Humidity;BMP_temperature;BMP_pressure;BME280_temperature;BME280_humidity;BME280_pressure;Samples;Min_cycle;Max_cycle;Signal;HPM_P1;HPM_P2
2023/11/22 00:00:21;;;;;;;10.63;5.37;;;;;;;;;;5049787;28;20026;-58
2023/11/22 00:02:47;;;;;;;11.45;5.93;;;;;;;;;;5043454;28;20025;-59
2023/11/22 00:05:12;;;;;;;12.95;6.70;;;;;;;;;;5042639;28;20036;-59
2023/11/22 00:07:37;;;;;;;10.83;5.80;;;;;;;;;;5047697;28;20021;-59
2023/11/22 00:10:04;;;;;;;12.57;5.77;;;;;;;;;;5052248;28;20013;-61
2023/11/22 00:12:36;;;;;;;12.18;5.82;;;;;;;;;;5051060;28;20547;-59
2023/11/22 00:15:01;;;;;;;14.32;6.70;;;;;;;;;;5051444;28;20070;-59
2023/11/22 00:17:26;;;;;;;12.80;6.40;;;;;;;;;;5046339;28;20034;-57
2023/11/22 00:19:51;;;;;;;13.18;6.38;;;;;;;;;;5052716;28;20024;-58
2023/11/22 00:22:16;;;;;;;12.15;5.93;;;;;;;;;;5044880;28;20427;-59
2023/11/22 00:24:41;;;;;;;13.05;6.25;;;;;;;;;;5051765;28;20068;-59
2023/11/22 00:27:07;;;;;;;12.27;6.50;;;;;;;;;;5041469;28;20028;-60
2023/11/22 00:29:32;;;;;;;13.35;6.40;;;;;;;;;;5050753;28;20427;-60
2023/11/22 00:31:58;;;;;;;14.88;6.60;;;;;;;;;;5050671;28;20056;-59
2023/11/22 00:34:24;;;;;;;12.57;6.22;;;;;;;;;;5058356;28;20456;-59
2023/11/22 00:36:50;;;;;;;19.60;13.32;;;;;;;;;;5046892;28;20028;-59
2023/11/22 00:39:16;;;;;;;12.80;6.18;;;;;;;;;;5051441;28;20036;-59
2023/11/22 00:41:41;;;;;;;15.30;9.18;;;;;;;;;;5048885;28;20025;-58
2023/11/22 00:44:07;;;;;;;15.30;7.30;;;;;;;;;;5046335;28;20484;-59
2023/11/22 00:46:32;;;;;;;14.05;6.95;;;;;;;;;;5050415;28;20017;-58
2023/11/22 00:48:57;;;;;;;13.43;6.40;;;;;;;;;;5048020;28;20024;-59
2023/11/22 00:51:23;;;;;;;13.43;7.03;;;;;;;;;;5050813;28;20040;-58
2023/11/22 00:53:49;;;;;;;15.40;7.00;;;;;;;;;;5050473;28;20408;-59
2023/11/22 00:56:14;;;;;;;14.45;6.45;;;;;;;;;;5052215;28;20075;-60
2023/11/22 00:58:39;;;;;;;12.33;6.47;;;;;;;;;;5055184;28;20024;-58
2023/11/22 01:01:05;;;;;;;14.93;7.30;;;;;;;;;;5053370;28;20021;-59
2023/11/22 01:03:30;;;;;;;15.48;6.95;;;;;;;;;;5051159;28;20033;-60
2023/11/22 01:05:55;;;;;;;15.20;7.40;;;;;;;;;;5052596;28;20032;-58
2023/11/22 01:08:20;;;;;;;14.95;6.90;;;;;;;;;;5058309;28;20420;-59
2023/11/22 01:10:46;;;;;;;14.38;6.93;;;;;;;;;;5063238;28;20024;-59
2023/11/22 01:13:11;;;;;;;14.30;7.33;;;;;;;;;;5052381;28;20021;-60
2023/11/22 01:15:36;;;;;;;17.63;8.90;;;;;;;;;;5061033;28;20040;-60
2023/11/22 01:18:01;;;;;;;18.38;7.47;;;;;;;;;;5061072;28;20024;-59
2023/11/22 01:20:26;;;;;;;18.23;7.90;;;;;;;;;;5058631;28;20123;-60
2023/11/22 01:22:52;;;;;;;15.18;7.32;;;;;;;;;;5054807;28;20025;-60
2023/11/22 01:25:17;;;;;;;20.60;8.53;;;;;;;;;;5054335;28;20113;-58
2023/11/22 01:27:43;;;;;;;17.25;7.97;;;;;;;;;;5048408;28;20037;-59
2023/11/22 01:30:08;;;;;;;17.57;7.93;;;;;;;;;;5052897;28;20113;-58
2023/11/22 01:32:34;;;;;;;16.00;7.10;;;;;;;;;;5056674;28;20080;-58
2023/11/22 01:35:00;;;;;;;16.40;8.02;;;;;;;;;;5048635;28;20459;-60
2023/11/22 01:37:25;;;;;;;17.52;7.97;;;;;;;;;;5053607;28;20392;-59
2023/11/22 01:39:50;;;;;;;20.43;8.70;;;;;;;;;;5051775;28;20356;-59
2023/11/22 01:42:16;;;;;;;18.75;8.60;;;;;;;;;;5057005;28;20023;-60
2023/11/22 01:44:41;;;;;;;19.20;8.32;;;;;;;;;;5054466;28;20041;-59
2023/11/22 01:47:07;;;;;;;18.40;8.77;;;;;;;;;;5057485;28;20034;-58
2023/11/22 01:49:32;;;;;;;17.35;8.13;;;;;;;;;;5052633;28;20150;-60
2023/11/22 01:51:57;;;;;;;20.77;8.07;;;;;;;;;;5052235;28;20404;-60
2023/11/22 01:54:24;;;;;;;18.13;8.47;;;;;;;;;;5049906;28;20049;-58
2023/11/22 01:56:49;;;;;;;19.95;8.93;;;;;;;;;;5052875;28;20029;-59
2023/11/22 01:59:15;;;;;;;18.67;8.10;;;;;;;;;;5050615;28;20029;-58
2023/11/22 02:01:40;;;;;;;18.47;8.33;;;;;;;;;;5058010;28;20024;-60
2023/11/22 02:04:06;;;;;;;19.88;8.38;;;;;;;;;;5041679;28;21022;-59
2023/11/22 02:06:31;;;;;;;16.65;8.13;;;;;;;;;;5051909;28;20036;-60
2023/11/22 02:08:56;;;;;;;15.90;7.93;;;;;;;;;;5049305;28;20033;-59
2023/11/22 02:11:22;;;;;;;17.47;8.60;;;;;;;;;;5048640;28;20025;-59
2023/11/22 02:13:50;;;;;;;17.80;8.15;;;;;;;;;;5048080;28;20025;-59
2023/11/22 02:16:16;;;;;;;19.67;8.18;;;;;;;;;;5046846;28;20017;-59
2023/11/22 02:18:43;;;;;;;20.20;8.27;;;;;;;;;;5049732;28;20620;-59
2023/11/22 02:21:08;;;;;;;17.83;7.90;;;;;;;;;;5046827;28;20389;-58
2023/11/22 02:23:33;;;;;;;17.77;8.23;;;;;;;;;;5048746;28;20135;-57
2023/11/22 02:25:58;;;;;;;19.45;8.77;;;;;;;;;;5049528;28;20045;-60
2023/11/22 02:28:24;;;;;;;17.13;7.83;;;;;;;;;;5049010;28;20033;-59
2023/11/22 02:30:49;;;;;;;15.68;7.65;;;;;;;;;;5049643;28;20397;-59
2023/11/22 02:33:14;;;;;;;17.20;7.80;;;;;;;;;;5046392;28;20112;-58
2023/11/22 02:35:42;;;;;;;20.00;8.30;;;;;;;;;;5050179;28;20021;-59
2023/11/22 02:38:07;;;;;;;19.02;7.72;;;;;;;;;;5044439;28;20488;-58
2023/11/22 02:40:32;;;;;;;19.00;8.43;;;;;;;;;;5050232;28;20029;-59
2023/11/22 02:42:57;;;;;;;20.90;9.00;;;;;;;;;;5047496;28;20025;-60
2023/11/22 02:45:27;;;;;;;18.50;8.27;;;;;;;;;;5050149;28;21151;-59
2023/11/22 02:47:52;;;;;;;18.85;8.43;;;;;;;;;;5048838;28;20492;-58
2023/11/22 02:50:17;;;;;;;20.92;8.90;;;;;;;;;;5050301;28;20151;-59
2023/11/22 02:52:43;;;;;;;17.45;8.07;;;;;;;;;;5050808;28;20049;-58
2023/11/22 02:55:11;;;;;;;19.57;8.53;;;;;;;;;;5052691;28;20028;-58
2023/11/22 02:57:36;;;;;;;20.52;8.18;;;;;;;;;;5053473;28;20021;-57
2023/11/22 03:00:03;;;;;;;18.63;8.00;;;;;;;;;;5054117;28;20017;-58
2023/11/22 03:02:29;;;;;;;19.02;8.18;;;;;;;;;;5052033;28;20044;-58
2023/11/22 03:04:54;;;;;;;18.43;8.27;;;;;;;;;;5051069;28;20118;-58
2023/11/22 03:07:20;;;;;;;21.85;10.00;;;;;;;;;;5053341;28;20403;-57
2023/11/22 03:09:46;;;;;;;22.92;9.70;;;;;;;;;;5059827;28;20066;-57
2023/11/22 03:12:12;;;;;;;21.40;9.00;;;;;;;;;;5064749;28;20435;-59
2023/11/22 03:14:38;;;;;;;21.02;9.23;;;;;;;;;;5067104;28;20012;-58
2023/11/22 03:17:04;;;;;;;20.38;9.50;;;;;;;;;;5067326;28;20021;-59
2023/11/22 03:19:29;;;;;;;21.80;8.85;;;;;;;;;;5055428;28;20397;-59
2023/11/22 03:21:56;;;;;;;20.20;8.97;;;;;;;;;;5053080;28;20404;-59
2023/11/22 03:24:21;;;;;;;21.50;9.85;;;;;;;;;;5050918;28;20086;-59
2023/11/22 03:26:46;;;;;;;21.67;9.20;;;;;;;;;;5053037;28;20389;-60
2023/11/22 03:29:11;;;;;;;25.90;8.83;;;;;;;;;;5052634;28;20025;-59
2023/11/22 03:31:36;;;;;;;21.20;8.15;;;;;;;;;;5048919;28;20539;-59
2023/11/22 03:34:02;;;;;;;24.60;9.43;;;;;;;;;;5048848;28;20024;-57
2023/11/22 03:36:27;;;;;;;20.03;9.47;;;;;;;;;;5053657;28;20086;-60
2023/11/22 03:38:54;;;;;;;21.45;9.70;;;;;;;;;;5055282;28;20455;-58
2023/11/22 03:41:20;;;;;;;23.10;10.20;;;;;;;;;;5051682;28;20445;-60
2023/11/22 03:43:46;;;;;;;19.88;9.07;;;;;;;;;;5051533;28;20617;-57
2023/11/22 03:46:11;;;;;;;19.98;9.02;;;;;;;;;;5050841;28;20048;-58
2023/11/22 03:48:37;;;;;;;25.43;10.00;;;;;;;;;;5051095;28;20389;-58
2023/11/22 03:51:02;;;;;;;20.65;8.93;;;;;;;;;;5051594;28;20059;-59
2023/11/22 03:53:27;;;;;;;19.67;8.98;;;;;;;;;;5053364;28;20029;-59
2023/11/22 03:55:53;;;;;;;19.23;8.90;;;;;;;;;;5053944;28;20029;-57
2023/11/22 03:58:18;;;;;;;20.73;8.80;;;;;;;;;;5054858;28;20024;-57
2023/11/22 04:00:43;;;;;;;18.57;8.33;;;;;;;;;;5052398;28;20029;-59
2023/11/22 04:03:08;;;;;;;22.87;9.27;;;;;;;;;;5050711;28;20799;-59
2023/11/22 04:05:33;;;;;;;18.90;8.37;;;;;;;;;;5052663;28;20037;-59
2023/11/22 04:07:59;;;;;;;17.93;8.40;;;;;;;;;;5053207;28;20158;-60
2023/11/22 04:10:24;;;;;;;16.77;7.80;;;;;;;;;;5051709;28;20029;-59
2023/11/22 04:12:50;;;;;;;20.75;8.60;;;;;;;;;;5053276;28;20440;-58
2023/11/22 04:15:15;;;;;;;19.43;7.90;;;;;;;;;;5051412;28;20496;-58
2023/11/22 04:17:40;;;;;;;18.83;8.70;;;;;;;;;;5053312;28;20039;-60
2023/11/22 04:20:09;;;;;;;18.42;8.70;;;;;;;;;;5050960;28;20446;-59
2023/11/22 04:22:35;;;;;;;18.90;7.78;;;;;;;;;;5054656;28;20066;-58
2023/11/22 04:25:01;;;;;;;18.70;8.32;;;;;;;;;;5062382;28;20068;-57
2023/11/22 04:27:27;;;;;;;18.30;7.90;;;;;;;;;;5051680;28;20044;-57
2023/11/22 04:29:52;;;;;;;16.23;7.63;;;;;;;;;;5045684;28;20052;-59
2023/11/22 04:32:17;;;;;;;16.33;7.57;;;;;;;;;;5051545;28;20040;-60
2023/11/22 04:34:42;;;;;;;18.10;8.20;;;;;;;;;;5050853;28;20509;-59
2023/11/22 04:37:08;;;;;;;17.00;7.63;;;;;;;;;;5048777;28;20020;-59
2023/11/22 04:39:33;;;;;;;16.60;7.32;;;;;;;;;;5051502;28;20029;-59
2023/11/22 04:41:58;;;;;;;19.05;8.25;;;;;;;;;;5051524;28;20020;-59
2023/11/22 04:44:23;;;;;;;16.95;7.63;;;;;;;;;;5049600;28;20114;-59
2023/11/22 04:46:48;;;;;;;20.03;9.10;;;;;;;;;;5052033;28;20044;-59
2023/11/22 04:49:14;;;;;;;17.67;8.07;;;;;;;;;;5051255;28;20401;-58
2023/11/22 04:51:39;;;;;;;21.73;9.13;;;;;;;;;;5051108;28;20459;-59
2023/11/22 04:54:04;;;;;;;18.55;8.13;;;;;;;;;;5050640;28;20035;-60
2023/11/22 04:56:29;;;;;;;19.07;8.20;;;;;;;;;;5051035;28;20037;-59
2023/11/22 04:58:55;;;;;;;16.27;7.88;;;;;;;;;;5050797;28;20099;-60
2023/11/22 05:01:20;;;;;;;19.77;8.73;;;;;;;;;;5049610;28;20017;-60
2023/11/22 05:03:45;;;;;;;17.43;8.43;;;;;;;;;;5051468;28;20446;-58
2023/11/22 05:06:10;;;;;;;16.02;7.63;;;;;;;;;;5049136;28;20028;-59
2023/11/22 05:08:35;;;;;;;16.40;7.77;;;;;;;;;;5049035;28;20040;-59
2023/11/22 05:11:00;;;;;;;19.13;8.30;;;;;;;;;;5049811;28;20068;-58
2023/11/22 05:13:25;;;;;;;17.83;7.80;;;;;;;;;;5050069;28;20574;-59
2023/11/22 05:15:51;;;;;;;18.42;8.40;;;;;;;;;;5050579;28;20016;-58
2023/11/22 05:18:16;;;;;;;17.93;7.83;;;;;;;;;;5051500;28;20021;-60
2023/11/22 05:20:41;;;;;;;19.00;8.27;;;;;;;;;;5046742;28;20559;-59
2023/11/22 05:23:06;;;;;;;17.70;8.03;;;;;;;;;;5050927;28;20071;-58
2023/11/22 05:25:31;;;;;;;17.67;8.20;;;;;;;;;;5048728;28;20025;-56
2023/11/22 05:27:56;;;;;;;18.42;8.00;;;;;;;;;;5047763;28;20095;-59
2023/11/22 05:30:22;;;;;;;18.53;8.17;;;;;;;;;;5050053;28;20452;-58
2023/11/22 05:32:48;;;;;;;17.53;8.10;;;;;;;;;;5046768;28;20055;-59
2023/11/22 05:35:14;;;;;;;18.95;9.23;;;;;;;;;;5050988;28;20480;-59
2023/11/22 05:37:39;;;;;;;19.67;8.75;;;;;;;;;;5053701;28;20408;-58
2023/11/22 05:40:05;;;;;;;21.60;9.20;;;;;;;;;;5050801;28;20021;-58
2023/11/22 05:42:31;;;;;;;20.67;9.07;;;;;;;;;;5047667;28;20466;-58
2023/11/22 05:44:56;;;;;;;21.35;9.40;;;;;;;;;;5049015;28;20051;-59
2023/11/22 05:47:21;;;;;;;21.05;9.35;;;;;;;;;;5047670;28;20028;-60
2023/11/22 05:49:47;;;;;;;23.15;9.20;;;;;;;;;;5050641;28;20147;-60
2023/11/22 05:52:12;;;;;;;21.80;9.37;;;;;;;;;;5048037;28;20495;-59
2023/11/22 05:54:37;;;;;;;20.10;9.02;;;;;;;;;;5044917;28;20106;-61
2023/11/22 05:57:02;;;;;;;23.10;9.67;;;;;;;;;;5050857;28;21548;-58
2023/11/22 05:59:27;;;;;;;22.57;9.80;;;;;;;;;;5046004;28;20111;-59
2023/11/22 06:01:52;;;;;;;22.70;9.50;;;;;;;;;;5047421;28;20100;-59
2023/11/22 06:04:18;;;;;;;22.67;9.43;;;;;;;;;;5051637;28;20025;-60
2023/11/22 06:06:43;;;;;;;20.73;9.27;;;;;;;;;;5051169;28;20021;-57
2023/11/22 06:09:10;;;;;;;22.30;9.23;;;;;;;;;;5052650;28;20105;-58
2023/11/22 06:11:35;;;;;;;20.95;9.27;;;;;;;;;;5051818;28;20017;-58
2023/11/22 06:14:00;;;;;;;21.33;9.53;;;;;;;;;;5051497;28;20021;-58
2023/11/22 06:16:25;;;;;;;22.03;9.30;;;;;;;;;;5048225;28;20033;-57
2023/11/22 06:18:51;;;;;;;19.47;9.00;;;;;;;;;;5050011;28;20028;-59
2023/11/22 06:21:16;;;;;;;20.50;9.40;;;;;;;;;;5051287;28;20424;-59
2023/11/22 06:23:42;;;;;;;21.80;10.00;;;;;;;;;;5047099;28;20451;-58
2023/11/22 06:26:07;;;;;;;22.95;9.93;;;;;;;;;;5050533;28;20035;-58
2023/11/22 06:28:32;;;;;;;24.23;10.37;;;;;;;;;;5058215;28;20020;-58
2023/11/22 06:30:57;;;;;;;22.33;9.38;;;;;;;;;;5053210;28;20496;-59
2023/11/22 06:33:22;;;;;;;23.77;10.70;;;;;;;;;;5049149;28;20017;-60
2023/11/22 06:35:47;;;;;;;24.07;9.53;;;;;;;;;;5055486;28;20028;-58
2023/11/22 06:38:13;;;;;;;24.63;9.97;;;;;;;;;;5054204;28;20028;-58
2023/11/22 06:40:38;;;;;;;21.37;9.87;;;;;;;;;;5060270;28;20029;-59
2023/11/22 06:43:06;;;;;;;21.13;9.52;;;;;;;;;;5067770;28;20032;-58
2023/11/22 06:45:31;;;;;;;23.67;9.07;;;;;;;;;;5067623;28;20036;-58
2023/11/22 06:47:57;;;;;;;25.53;10.50;;;;;;;;;;5055061;28;20036;-59
2023/11/22 06:50:23;;;;;;;20.73;9.60;;;;;;;;;;5053571;28;20385;-58
2023/11/22 06:52:49;;;;;;;22.27;9.70;;;;;;;;;;5051545;28;20099;-57
2023/11/22 06:55:15;;;;;;;24.77;11.02;;;;;;;;;;5054207;28;20047;-58
2023/11/22 06:57:40;;;;;;;25.70;10.67;;;;;;;;;;5053426;28;20055;-59
2023/11/22 07:00:05;;;;;;;23.63;10.50;;;;;;;;;;5049463;28;20017;-59
2023/11/22 07:02:35;;;;;;;23.10;9.98;;;;;;;;;;5063221;28;20024;-59
2023/11/22 07:05:00;;;;;;;21.67;8.98;;;;;;;;;;5055268;28;20539;-59
2023/11/22 07:07:25;;;;;;;21.37;9.07;;;;;;;;;;5054452;28;20095;-61
2023/11/22 07:09:50;;;;;;;23.27;9.57;;;;;;;;;;5050584;28;20032;-59
2023/11/22 07:12:16;;;;;;;24.85;10.10;;;;;;;;;;5052856;28;20071;-59
2023/11/22 07:14:43;;;;;;;24.10;10.03;;;;;;;;;;5048544;28;20074;-58
2023/11/22 07:17:08;;;;;;;22.75;9.75;;;;;;;;;;5048440;28;20009;-59
2023/11/22 07:19:38;;;;;;;22.33;9.53;;;;;;;;;;5054442;28;20090;-60
2023/11/22 07:22:04;;;;;;;27.52;10.55;;;;;;;;;;5051380;28;20017;-60
2023/11/22 07:24:34;;;;;;;22.98;9.60;;;;;;;;;;5052291;28;20036;-57
2023/11/22 07:27:00;;;;;;;24.83;10.73;;;;;;;;;;5057450;28;20028;-58
2023/11/22 07:29:26;;;;;;;25.17;10.38;;;;;;;;;;5050957;28;20532;-59
2023/11/22 07:31:51;;;;;;;22.30;9.52;;;;;;;;;;5055633;28;20076;-59
2023/11/22 07:34:18;;;;;;;22.67;10.63;;;;;;;;;;5059580;28;20040;-59
2023/11/22 07:36:44;;;;;;;22.95;10.15;;;;;;;;;;5058970;28;20021;-59
2023/11/22 07:39:11;;;;;;;21.67;9.75;;;;;;;;;;5069384;28;20070;-58
2023/11/22 07:41:36;;;;;;;25.88;10.73;;;;;;;;;;5058918;28;20028;-57
2023/11/22 07:44:02;;;;;;;20.48;9.00;;;;;;;;;;5056150;28;20020;-58
2023/11/22 07:46:27;;;;;;;20.95;9.52;;;;;;;;;;5057381;28;20025;-58
2023/11/22 07:48:52;;;;;;;24.33;9.80;;;;;;;;;;5067538;28;20112;-58
2023/11/22 07:51:18;;;;;;;20.20;8.90;;;;;;;;;;5051058;28;20392;-58
2023/11/22 07:53:43;;;;;;;21.17;9.33;;;;;;;;;;5059747;28;20028;-58
2023/11/22 07:56:09;;;;;;;21.33;9.43;;;;;;;;;;5062137;28;20031;-59
2023/11/22 07:58:34;;;;;;;21.77;9.85;;;;;;;;;;5053462;28;20427;-58
2023/11/22 08:00:59;;;;;;;21.27;9.20;;;;;;;;;;5054828;28;20025;-58
2023/11/22 08:03:25;;;;;;;20.00;8.63;;;;;;;;;;5053022;28;20472;-57
2023/11/22 08:05:53;;;;;;;17.90;7.88;;;;;;;;;;5055231;28;20475;-57
2023/11/22 08:08:18;;;;;;;19.83;9.05;;;;;;;;;;5060029;28;20071;-59
2023/11/22 08:10:44;;;;;;;19.97;8.77;;;;;;;;;;5052092;28;20021;-58
2023/11/22 08:13:09;;;;;;;20.75;8.85;;;;;;;;;;5050552;28;20021;-57
2023/11/22 08:15:35;;;;;;;21.27;9.00;;;;;;;;;;5053015;28;20037;-59
2023/11/22 08:18:00;;;;;;;22.50;9.57;;;;;;;;;;5048747;28;20075;-60
2023/11/22 08:20:25;;;;;;;20.57;8.07;;;;;;;;;;5051440;28;20151;-58
2023/11/22 08:22:50;;;;;;;19.10;7.73;;;;;;;;;;5057337;28;20024;-60
2023/11/22 08:25:16;;;;;;;20.23;9.20;;;;;;;;;;5052460;28;21010;-58
2023/11/22 08:27:41;;;;;;;19.70;8.02;;;;;;;;;;5055458;28;20469;-57
2023/11/22 08:30:09;;;;;;;19.92;8.80;;;;;;;;;;5060403;28;20028;-58
2023/11/22 08:32:34;;;;;;;19.77;8.68;;;;;;;;;;5055584;28;20514;-59
2023/11/22 08:35:00;;;;;;;19.17;8.83;;;;;;;;;;5050503;28;20155;-59
2023/11/22 08:37:25;;;;;;;18.03;7.67;;;;;;;;;;5053544;28;20025;-58
2023/11/22 08:39:50;;;;;;;18.60;8.27;;;;;;;;;;5053781;28;20493;-59
2023/11/22 08:42:15;;;;;;;18.77;8.40;;;;;;;;;;5051781;28;20040;-59
2023/11/22 08:44:41;;;;;;;18.85;8.13;;;;;;;;;;5050067;28;20051;-58
2023/11/22 08:47:06;;;;;;;19.57;8.43;;;;;;;;;;5051728;28;20032;-61
2023/11/22 08:49:31;;;;;;;19.17;8.68;;;;;;;;;;5051040;28;20017;-60
2023/11/22 08:51:59;;;;;;;19.80;8.73;;;;;;;;;;5052155;28;20075;-59
2023/11/22 08:54:24;;;;;;;;;;;;;;;;;;5054347;28;20021;-60
2023/11/22 08:56:49;;;;;;;19.25;8.07;;;;;;;;;;5049324;28;19912;-56
2023/11/22 08:59:16;;;;;;;19.43;9.00;;;;;;;;;;5048794;28;20473;-59
2023/11/22 09:01:45;;;;;;;17.38;8.35;;;;;;;;;;5049251;28;20033;-58
2023/11/22 09:04:10;;;;;;;19.05;8.27;;;;;;;;;;5044103;28;20025;-57
2023/11/22 09:06:35;;;;;;;22.47;9.10;;;;;;;;;;5052304;28;20020;-58
2023/11/22 09:09:01;;;;;;;20.90;9.23;;;;;;;;;;5072677;28;20083;-59
2023/11/22 09:11:26;;;;;;;16.63;7.90;;;;;;;;;;5064607;28;20029;-59
2023/11/22 09:13:53;;;;;;;21.80;8.83;;;;;;;;;;5052760;28;20028;-58
2023/11/22 09:16:19;;;;;;;21.25;9.07;;;;;;;;;;5052297;28;20112;-58
2023/11/22 09:18:44;;;;;;;22.92;9.02;;;;;;;;;;5052076;28;20449;-59
2023/11/22 09:21:09;;;;;;;20.35;9.02;;;;;;;;;;5047342;28;20047;-60
2023/11/22 09:23:36;;;;;;;21.73;9.20;;;;;;;;;;5050992;28;20581;-58
2023/11/22 09:26:01;;;;;;;22.48;9.27;;;;;;;;;;5050728;28;20108;-58
2023/11/22 09:28:27;;;;;;;21.55;8.60;;;;;;;;;;5050409;28;20108;-58
2023/11/22 09:30:52;;;;;;;21.50;8.50;;;;;;;;;;5051471;28;20021;-58
2023/11/22 09:33:18;;;;;;;19.52;8.80;;;;;;;;;;5047381;28;20041;-59
2023/11/22 09:35:45;;;;;;;23.63;9.07;;;;;;;;;;5052372;28;20104;-59
2023/11/22 09:38:15;;;;;;;;;;;;;;;;;;5050710;28;20460;-58
2023/11/22 09:40:41;;;;;;;20.48;8.88;;;;;;;;;;5051336;28;20155;-60
2023/11/22 09:43:07;;;;;;;19.73;8.32;;;;;;;;;;5050460;28;20028;-58
2023/11/22 09:45:32;;;;;;;22.30;8.48;;;;;;;;;;5050685;28;20033;-59
2023/11/22 09:47:58;;;;;;;16.55;7.15;;;;;;;;;;5051429;28;20017;-60
2023/11/22 09:50:42;;;;;;;15.77;6.75;;;;;;;;;;5051596;28;20032;-59
2023/11/22 09:53:11;;;;;;;17.00;7.35;;;;;;;;;;5050473;28;20029;-57
2023/11/22 09:55:37;;;;;;;16.30;7.35;;;;;;;;;;5050769;28;20480;-61
2023/11/22 09:58:03;;;;;;;16.50;7.53;;;;;;;;;;5049751;28;20098;-56
2023/11/22 10:00:30;;;;;;;16.70;6.97;;;;;;;;;;5046657;28;20021;-58
2023/11/22 10:02:55;;;;;;;15.30;7.50;;;;;;;;;;5053099;28;20029;-57
2023/11/22 10:05:20;;;;;;;16.60;7.00;;;;;;;;;;5054612;28;20083;-59
2023/11/22 10:07:47;;;;;;;17.07;6.47;;;;;;;;;;5059225;28;20488;-60
2023/11/22 10:10:14;;;;;;;17.92;7.25;;;;;;;;;;5046990;28;20048;-59
2023/11/22 10:12:40;;;;;;;;;;;;;;;;;;5053663;28;20032;-60
2023/11/22 10:15:12;;;;;;;12.67;5.83;;;;;;;;;;5052603;28;20260;-60
2023/11/22 10:17:37;;;;;;;14.63;6.15;;;;;;;;;;5050553;28;20108;-60
2023/11/22 10:20:02;;;;;;;14.85;6.05;;;;;;;;;;5050423;28;20495;-60
2023/11/22 10:22:27;;;;;;;14.23;6.10;;;;;;;;;;5050579;28;20386;-57
2023/11/22 10:24:55;;;;;;;15.20;6.17;;;;;;;;;;5050404;28;20466;-59
2023/11/22 10:27:20;;;;;;;14.40;6.00;;;;;;;;;;5043244;28;20106;-59
2023/11/22 10:29:47;;;;;;;14.63;6.37;;;;;;;;;;5050009;28;20025;-58
2023/11/22 10:32:12;;;;;;;13.43;5.68;;;;;;;;;;5047945;28;20025;-57
2023/11/22 10:34:38;;;;;;;13.52;6.65;;;;;;;;;;5050354;28;20021;-59
2023/11/22 10:37:04;;;;;;;14.88;6.18;;;;;;;;;;5050606;28;20527;-57
2023/11/22 10:39:29;;;;;;;13.87;5.87;;;;;;;;;;5049731;28;20047;-59
2023/11/22 10:41:54;;;;;;;13.90;5.87;;;;;;;;;;5049556;28;20078;-59
2023/11/22 10:44:20;;;;;;;15.40;6.00;;;;;;;;;;5049913;28;20422;-60
2023/11/22 10:46:45;;;;;;;13.77;5.68;;;;;;;;;;5050946;28;20497;-58
2023/11/22 10:49:10;;;;;;;14.77;5.60;;;;;;;;;;5051394;28;20013;-58
2023/11/22 10:51:39;;;;;;;12.00;5.10;;;;;;;;;;5048799;28;20021;-58
2023/11/22 10:54:07;;;;;;;12.35;5.10;;;;;;;;;;5050017;28;20036;-58
2023/11/22 10:56:37;;;;;;;11.98;4.80;;;;;;;;;;5050599;28;20086;-59
2023/11/22 10:59:05;;;;;;;12.63;5.57;;;;;;;;;;5050756;28;20024;-59
2023/11/22 11:01:30;;;;;;;11.98;5.07;;;;;;;;;;5047932;28;20459;-59
2023/11/22 11:03:57;;;;;;;13.20;5.30;;;;;;;;;;5050214;28;20029;-59
2023/11/22 11:06:27;;;;;;;13.90;5.57;;;;;;;;;;5050523;28;20025;-59
2023/11/22 11:08:53;;;;;;;11.32;5.32;;;;;;;;;;5049784;28;20104;-59
2023/11/22 11:11:18;;;;;;;12.55;5.22;;;;;;;;;;5048032;28;20052;-59
2023/11/22 11:13:43;;;;;;;12.10;5.30;;;;;;;;;;5053866;28;20033;-59
2023/11/22 11:16:08;;;;;;;13.53;5.33;;;;;;;;;;5054157;28;20040;-57
2023/11/22 11:18:35;;;;;;;12.97;5.60;;;;;;;;;;5049696;28;20439;-58
2023/11/22 11:21:07;;;;;;;12.27;5.30;;;;;;;;;;5051481;28;20474;-59
2023/11/22 11:23:32;;;;;;;12.93;5.28;;;;;;;;;;5056411;28;20024;-57
2023/11/22 11:25:59;;;;;;;12.97;6.00;;;;;;;;;;5056481;28;20032;-59
2023/11/22 11:28:26;;;;;;;13.27;5.68;;;;;;;;;;5055922;28;20047;-58
2023/11/22 11:30:53;;;;;;;12.70;5.30;;;;;;;;;;5056992;28;20027;-60
2023/11/22 11:33:27;;;;;;;14.13;5.60;;;;;;;;;;5062014;28;20035;-58
2023/11/22 11:35:56;;;;;;;13.63;5.68;;;;;;;;;;5062424;28;20029;-58
2023/11/22 11:38:26;;;;;;;13.63;5.22;;;;;;;;;;5048729;28;20025;-57
2023/11/22 11:40:54;;;;;;;14.85;5.95;;;;;;;;;;5058701;28;20023;-59
2023/11/22 11:43:38;;;;;;;14.18;5.22;;;;;;;;;;5055122;28;20037;-59
2023/11/22 11:46:08;;;;;;;12.88;5.35;;;;;;;;;;5054903;28;20032;-60
2023/11/22 11:48:33;;;;;;;13.52;5.28;;;;;;;;;;5062345;28;20047;-60
2023/11/22 11:50:58;;;;;;;15.13;5.47;;;;;;;;;;5049419;28;20488;-60
2023/11/22 11:53:23;;;;;;;14.88;5.40;;;;;;;;;;5057307;28;20024;-58
2023/11/22 11:55:51;;;;;;;12.27;5.17;;;;;;;;;;5053255;28;20021;-58
2023/11/22 11:58:17;;;;;;;11.10;4.88;;;;;;;;;;5057369;28;20024;-58
2023/11/22 12:00:42;;;;;;;12.60;5.10;;;;;;;;;;5057733;28;20095;-60
2023/11/22 12:03:09;;;;;;;12.03;5.43;;;;;;;;;;5060278;28;20051;-59
2023/11/22 12:05:34;;;;;;;13.23;5.43;;;;;;;;;;5053758;28;20075;-59
2023/11/22 12:08:00;;;;;;;12.50;4.83;;;;;;;;;;5051359;28;20053;-61
2023/11/22 12:10:25;;;;;;;13.00;5.40;;;;;;;;;;5053817;28;20025;-59
2023/11/22 12:12:50;;;;;;;12.17;4.90;;;;;;;;;;5061392;28;20079;-59
2023/11/22 12:15:15;;;;;;;13.77;5.23;;;;;;;;;;5050568;28;20096;-59
2023/11/22 12:17:40;;;;;;;11.57;5.50;;;;;;;;;;5056811;28;20028;-57
2023/11/22 12:20:13;;;;;;;10.80;4.97;;;;;;;;;;5046494;28;20087;-57
2023/11/22 12:22:38;;;;;;;11.82;5.05;;;;;;;;;;5043147;28;20099;-59
2023/11/22 12:25:05;;;;;;;11.87;5.10;;;;;;;;;;5047021;28;20551;-58
2023/11/22 12:27:31;;;;;;;11.52;5.00;;;;;;;;;;5047387;28;20025;-60
2023/11/22 12:29:57;;;;;;;10.55;4.95;;;;;;;;;;5056757;28;20075;-58
2023/11/22 12:32:23;;;;;;;12.32;5.30;;;;;;;;;;5048527;28;20035;-59
2023/11/22 12:34:49;;;;;;;11.32;4.72;;;;;;;;;;5044326;28;20025;-57
2023/11/22 12:37:15;;;;;;;12.43;5.10;;;;;;;;;;5044960;28;20028;-56
2023/11/22 12:39:41;;;;;;;13.30;5.22;;;;;;;;;;5042911;28;21014;-58
2023/11/22 12:42:07;;;;;;;12.63;5.32;;;;;;;;;;5045161;28;20485;-57
2023/11/22 12:44:46;;;;;;;12.90;5.43;;;;;;;;;;5048961;28;20049;-57
2023/11/22 12:47:11;;;;;;;11.63;5.25;;;;;;;;;;5047593;28;20029;-59
2023/11/22 12:49:43;;;;;;;11.60;4.90;;;;;;;;;;5041047;28;20025;-57
2023/11/22 12:52:09;;;;;;;12.88;5.28;;;;;;;;;;5053801;28;20047;-59
2023/11/22 12:54:35;;;;;;;10.35;4.65;;;;;;;;;;5051168;28;20053;-59
2023/11/22 12:57:00;;;;;;;11.52;5.00;;;;;;;;;;5061063;28;20023;-57
2023/11/22 12:59:30;;;;;;;12.80;5.20;;;;;;;;;;5048761;28;20473;-59
2023/11/22 13:01:56;;;;;;;11.32;4.88;;;;;;;;;;5044239;28;20468;-57
2023/11/22 13:04:21;;;;;;;10.80;4.85;;;;;;;;;;5048452;28;20032;-58
2023/11/22 13:06:46;;;;;;;11.30;4.32;;;;;;;;;;5047952;28;20020;-57
2023/11/22 13:09:14;;;;;;;10.10;4.40;;;;;;;;;;5053471;28;20032;-59
2023/11/22 13:11:43;;;;;;;10.07;4.35;;;;;;;;;;5051554;28;20021;-59
2023/11/22 13:14:08;;;;;;;10.32;4.38;;;;;;;;;;5047886;28;20147;-58
2023/11/22 13:16:34;;;;;;;11.10;5.00;;;;;;;;;;5049728;28;20049;-58
2023/11/22 13:18:59;;;;;;;10.30;5.05;;;;;;;;;;5047883;28;20037;-59
2023/11/22 13:21:25;;;;;;;11.77;5.17;;;;;;;;;;5044046;28;20040;-57
2023/11/22 13:23:50;;;;;;;13.53;5.70;;;;;;;;;;5048286;28;20032;-59
2023/11/22 13:26:16;;;;;;;10.30;4.47;;;;;;;;;;5048497;28;20091;-58
2023/11/22 13:28:42;;;;;;;10.15;4.22;;;;;;;;;;5054341;28;20131;-58
2023/11/22 13:31:07;;;;;;;10.13;4.60;;;;;;;;;;5058780;28;20081;-58
2023/11/22 13:33:33;;;;;;;9.50;4.75;;;;;;;;;;5056391;28;20029;-58
2023/11/22 13:35:58;;;;;;;8.70;4.17;;;;;;;;;;5053381;28;20024;-58
2023/11/22 13:38:23;;;;;;;9.75;4.10;;;;;;;;;;5050588;28;20413;-57
2023/11/22 13:40:48;;;;;;;10.27;4.90;;;;;;;;;;5070635;28;20025;-58
2023/11/22 13:43:14;;;;;;;9.43;4.15;;;;;;;;;;5056597;28;20028;-58
2023/11/22 13:45:41;;;;;;;9.50;4.50;;;;;;;;;;5055846;28;20086;-60
2023/11/22 13:48:09;;;;;;;10.95;4.57;;;;;;;;;;5046490;28;20029;-59
2023/11/22 13:50:34;;;;;;;10.65;4.80;;;;;;;;;;5049516;28;20017;-58
2023/11/22 13:53:00;;;;;;;11.90;5.35;;;;;;;;;;5048076;28;20074;-58
2023/11/22 13:55:25;;;;;;;10.63;4.77;;;;;;;;;;5045726;28;20400;-59
2023/11/22 13:57:51;;;;;;;10.47;4.70;;;;;;;;;;5050137;28;20072;-59
2023/11/22 14:00:22;;;;;;;10.52;4.80;;;;;;;;;;5047896;28;20036;-57
2023/11/22 14:02:51;;;;;;;11.73;5.25;;;;;;;;;;5044449;28;20033;-59
2023/11/22 14:05:16;;;;;;;11.48;4.82;;;;;;;;;;5048470;28;20028;-59
2023/11/22 14:07:42;;;;;;;10.43;4.80;;;;;;;;;;5046288;28;20017;-59
2023/11/22 14:10:09;;;;;;;10.35;4.45;;;;;;;;;;5051313;28;20021;-59
2023/11/22 14:12:35;;;;;;;10.93;4.78;;;;;;;;;;5050909;28;20017;-59
2023/11/22 14:15:00;;;;;;;10.77;5.00;;;;;;;;;;5051427;28;20470;-59
2023/11/22 14:17:25;;;;;;;11.20;4.57;;;;;;;;;;5048492;28;20032;-59
2023/11/22 14:19:51;;;;;;;11.40;5.47;;;;;;;;;;5057677;28;20016;-58
2023/11/22 14:22:17;;;;;;;10.90;5.15;;;;;;;;;;5047211;28;20043;-60